South Abington Township, Pennsylvania
Current Conditions -  °F | °C
As of 11:54 PM on Thursday 30 Oct 2014 (Local Time) from KAVP Reporting Station
Clear Clear  
Wind Chill: 33°   Ceiling: Unl
Heat Index: 38°   Visibility: 10mi
Dew Point: 31°   Wind: 6mph
Humidity: 76%   Direction: 110°ESE
Pressure: 30.02"   Gusts: NA
Location:  41.4656°N, 75.7341°W
Report Text: KAVP 310354Z AUTO 11005KT 10SM CLR 03/M01 A3002 RMK AO2 SLP167 T00331006
Loading
Personal Weather Stations






























Interactive Weather Map
Tropical Storm Tracking
New forecast layout! Learn more

10-Day Weather Forecast

Advertisements
Track Severe Weather on mobile